TimeCST,TemperatureF,Dew PointF,Humidity,Sea Level PressureIn,VisibilityMPH,Wind Direction,Wind SpeedMPH,Gust SpeedMPH,PrecipitationIn,Events,Conditions,WindDirDegrees,DateUTC
12:53 AM,17.1,10.0,74,30.43,10.0,North,9.2,-,N/A,,Clear,360,2013-02-01 06:53:00
1:53 AM,16.0,9.0,74,30.41,10.0,North,12.7,-,N/A,,Clear,10,2013-02-01 07:53:00
3:53 AM,14.0,7.0,74,30.44,10.0,NE,6.9,-,N/A,,Clear,40,2013-02-01 09:53:00
4:53 AM,14.0,8.1,77,30.45,10.0,Calm,Calm,-,N/A,,Clear,0,2013-02-01 10:53:00
6:53 AM,14.0,8.1,77,30.47,10.0,East,3.5,-,N/A,,Clear,90,2013-02-01 12:53:00
7:53 AM,15.1,9.0,77,30.46,9.0,East,5.8,-,N/A,,Clear,100,2013-02-01 13:53:00
9:53 AM,21.0,8.1,57,30.48,10.0,SSE,5.8,-,N/A,,Clear,150,2013-02-01 15:53:00
11:53 AM,30.0,8.1,40,30.43,10.0,ESE,5.8,-,N/A,,Clear,120,2013-02-01 17:53:00
12:53 PM,34.0,10.0,37,30.39,10.0,SSE,8.1,-,N/A,,Clear,160,2013-02-01 18:53:00
1:53 PM,37.0,14.0,39,30.33,10.0,SE,8.1,-,N/A,,Clear,140,2013-02-01 19:53:00
2:53 PM,41.0,17.1,38,30.28,10.0,South,9.2,-,N/A,,Clear,170,2013-02-01 20:53:00
3:53 PM,44.1,16.0,32,30.25,10.0,South,11.5,-,N/A,,Clear,190,2013-02-01 21:53:00
4:53 PM,42.1,17.1,37,30.23,10.0,South,10.4,-,N/A,,Clear,180,2013-02-01 22:53:00
5:53 PM,37.9,15.1,39,30.22,10.0,South,11.5,-,N/A,,Clear,190,2013-02-01 23:53:00
6:53 PM,35.1,14.0,42,30.21,10.0,South,17.3,-,N/A,,Clear,170,2013-02-02 00:53:00
7:53 PM,30.9,17.1,57,30.20,10.0,South,6.9,-,N/A,,Clear,170,2013-02-02 01:53:00
8:53 PM,28.9,17.1,61,30.21,10.0,West,3.5,-,N/A,,Clear,260,2013-02-02 02:53:00
9:53 PM,28.9,17.1,61,30.25,10.0,WNW,3.5,-,N/A,,Clear,290,2013-02-02 03:53:00
10:53 PM,27.0,18.0,69,30.25,10.0,WNW,3.5,-,N/A,,Clear,290,2013-02-02 04:53:00
11:53 PM,28.0,19.0,69,30.23,10.0,South,4.6,-,N/A,,Clear,170,2013-02-02 05:53:00